Time;durP1;ratioP1;P1;durP2;ratioP2;P2;SDS_P1;SDS_P2;PMS_P1;PMS_P2;Temp;Humidity;BMP_temperature;BMP_pressure;BME280_temperature;BME280_humidity;BME280_pressure;Samples;Min_cycle;Max_cycle;Signal;HPM_P1;HPM_P2
2023/05/09 00:01:18;;;;;;;12.85;9.80;;;;;;;18.01;63.58;100605.50;10307627;28;20343;-64
2023/05/09 00:06:20;;;;;;;17.25;10.38;;;;;;;18.07;63.56;100601.09;10347013;28;20042;-64
2023/05/09 00:11:21;;;;;;;12.30;9.77;;;;;;;18.07;63.49;100602.94;10345656;28;20050;-63
2023/05/09 00:16:23;;;;;;;11.65;9.00;;;;;;;18.09;63.49;100606.28;10350613;28;20470;-63
2023/05/09 00:21:24;;;;;;;12.10;9.82;;;;;;;18.09;63.54;100590.81;10350668;28;20050;-65
2023/05/09 00:26:26;;;;;;;14.82;10.43;;;;;;;18.09;63.42;100579.94;10349613;28;20178;-63
2023/05/09 00:31:28;;;;;;;16.15;11.95;;;;;;;18.07;63.56;100576.59;10345359;28;20129;-64
2023/05/09 00:36:31;;;;;;;16.20;10.88;;;;;;;17.93;64.10;100575.00;10348244;28;20134;-63
2023/05/09 00:41:32;;;;;;;12.95;10.65;;;;;;;18.03;63.91;100575.38;10348634;28;20038;-64
2023/05/09 00:46:34;;;;;;;13.50;10.25;;;;;;;18.15;63.76;100560.00;10347142;28;20045;-64
2023/05/09 00:51:36;;;;;;;14.45;10.65;;;;;;;18.23;63.48;100559.72;10342917;28;20145;-63
2023/05/09 00:56:38;;;;;;;17.20;11.00;;;;;;;18.28;63.72;100555.50;10346094;28;20127;-64
2023/05/09 01:01:39;;;;;;;13.38;10.35;;;;;;;18.34;63.59;100552.72;10343446;28;20666;-65
2023/05/09 01:06:49;;;;;;;14.20;11.05;;;;;;;18.30;63.69;100540.59;10343273;28;20053;-65
2023/05/09 01:12:11;;;;;;;17.20;11.38;;;;;;;18.30;63.73;100542.50;10344307;28;20457;-65
2023/05/09 01:17:42;;;;;;;13.25;10.93;;;;;;;18.20;63.93;100537.56;10345637;28;20148;-64
2023/05/09 01:22:54;;;;;;;21.25;13.57;;;;;;;18.06;64.59;100541.44;10345324;28;20045;-66
2023/05/09 01:28:21;;;;;;;18.80;12.52;;;;;;;18.06;64.71;100530.56;10341603;28;20571;-64
2023/05/09 01:33:25;;;;;;;16.55;12.75;;;;;;;18.09;64.36;100533.69;10342597;28;20062;-63
2023/05/09 01:38:30;;;;;;;16.88;13.02;;;;;;;18.09;64.52;100541.84;10344358;28;20136;-64
2023/05/09 01:43:33;;;;;;;17.27;12.80;;;;;;;18.12;64.42;100532.41;10348808;28;20096;-65
2023/05/09 01:48:36;;;;;;;23.50;14.27;;;;;;;18.21;64.33;100521.00;10345243;28;20107;-64
2023/05/09 01:53:41;;;;;;;19.20;13.98;;;;;;;18.29;64.38;100519.09;10344510;28;20042;-64
2023/05/09 01:58:44;;;;;;;19.02;13.02;;;;;;;18.31;64.42;100511.53;10345892;28;20085;-65
2023/05/09 02:03:49;;;;;;;19.13;14.73;;;;;;;18.30;64.57;100510.66;10342031;28;20054;-64
2023/05/09 02:08:50;;;;;;;19.95;13.45;;;;;;;18.24;64.59;100498.78;10346904;28;20116;-64
2023/05/09 02:13:52;;;;;;;20.15;14.77;;;;;;;18.17;64.67;100491.75;10353555;28;20081;-63
2023/05/09 02:18:53;;;;;;;21.05;15.57;;;;;;;18.08;64.34;100498.53;10342298;28;20046;-63
2023/05/09 02:23:55;;;;;;;17.92;14.50;;;;;;;18.00;64.80;100500.47;10345036;28;20077;-63
2023/05/09 02:28:57;;;;;;;19.67;14.52;;;;;;;17.89;65.09;100509.34;10341578;28;20065;-65
2023/05/09 02:34:00;;;;;;;21.05;15.20;;;;;;;17.62;65.66;100503.22;10347568;28;20100;-64
2023/05/09 02:39:01;;;;;;;23.60;15.48;;;;;;;17.35;66.46;100503.34;10345833;28;20058;-64
2023/05/09 02:44:04;;;;;;;22.52;15.55;;;;;;;17.33;66.51;100496.47;10348126;28;20058;-63
2023/05/09 02:49:05;;;;;;;23.10;15.80;;;;;;;17.42;66.23;100495.19;10342039;28;20085;-64
2023/05/09 02:54:07;;;;;;;23.48;15.82;;;;;;;17.44;65.85;100477.59;10341031;28;20050;-64
2023/05/09 02:59:09;;;;;;;22.70;15.63;;;;;;;17.46;65.94;100463.81;10327029;28;20042;-64
2023/05/09 03:04:11;;;;;;;20.63;15.10;;;;;;;17.42;65.71;100473.44;10345397;28;20054;-66
2023/05/09 03:09:13;;;;;;;23.15;15.50;;;;;;;17.38;65.63;100472.22;10343280;28;20117;-65
2023/05/09 03:14:14;;;;;;;22.48;16.02;;;;;;;17.35;65.88;100472.63;10344502;28;20120;-63
2023/05/09 03:19:16;;;;;;;24.25;16.90;;;;;;;17.34;66.00;100479.97;10338721;28;20704;-64
2023/05/09 03:24:17;;;;;;;23.90;15.68;;;;;;;17.38;66.13;100472.22;10341185;28;20077;-63
2023/05/09 03:29:19;;;;;;;21.45;14.75;;;;;;;17.45;66.08;100460.22;10346338;28;20656;-64
2023/05/09 03:34:20;;;;;;;19.73;15.15;;;;;;;17.50;65.77;100459.59;10343494;28;20041;-64
2023/05/09 03:39:21;;;;;;;21.10;14.40;;;;;;;17.48;66.22;100458.97;10343483;28;20452;-65
2023/05/09 03:44:23;;;;;;;25.05;14.57;;;;;;;17.42;65.94;100455.25;10345338;28;20452;-66
2023/05/09 03:49:24;;;;;;;24.00;16.83;;;;;;;17.41;66.08;100452.75;10356244;28;20050;-68
2023/05/09 03:54:26;;;;;;;22.38;15.82;;;;;;;17.40;65.99;100464.69;10349031;28;20102;-70
2023/05/09 03:59:27;;;;;;;24.70;16.10;;;;;;;17.38;65.93;100442.31;10352359;28;20050;-70
2023/05/09 04:04:29;;;;;;;20.75;14.52;;;;;;;17.40;65.99;100440.22;10350664;28;20038;-70
2023/05/09 04:09:31;;;;;;;20.83;14.65;;;;;;;17.36;65.85;100439.81;10353809;28;20042;-70
2023/05/09 04:14:32;;;;;;;27.83;15.55;;;;;;;17.38;66.00;100442.31;10346875;28;20417;-67
2023/05/09 04:19:33;;;;;;;21.48;15.13;;;;;;;17.40;66.27;100441.03;10348156;28;20457;-69
2023/05/09 04:24:35;;;;;;;19.35;15.00;;;;;;;17.46;66.24;100444.78;10350879;28;20370;-70
2023/05/09 04:29:37;;;;;;;21.83;15.23;;;;;;;17.55;66.00;100448.06;10342564;28;20048;-69
2023/05/09 04:34:39;;;;;;;20.80;14.65;;;;;;;17.53;66.26;100442.81;10349216;28;20056;-70
2023/05/09 04:39:41;;;;;;;21.55;15.63;;;;;;;17.72;66.07;100442.94;10350014;28;20150;-71
2023/05/09 04:44:42;;;;;;;19.00;13.70;;;;;;;17.94;65.75;100441.50;10346889;28;20055;-69
2023/05/09 04:49:43;;;;;;;19.67;14.60;;;;;;;18.07;65.54;100437.84;10347020;28;20112;-70
2023/05/09 04:54:45;;;;;;;22.17;14.00;;;;;;;18.20;65.26;100424.09;10333148;28;20094;-69
2023/05/09 04:59:46;;;;;;;19.17;14.80;;;;;;;18.26;65.16;100421.53;10347898;28;20050;-69
2023/05/09 05:04:48;;;;;;;19.45;14.80;;;;;;;18.36;64.94;100413.69;10319056;28;20110;-66
2023/05/09 05:09:49;;;;;;;19.02;14.93;;;;;;;18.43;64.72;100411.75;10292802;28;20054;-65
2023/05/09 05:14:51;;;;;;;19.27;14.30;;;;;;;18.48;64.68;100411.03;10307270;28;20050;-65
2023/05/09 05:19:52;;;;;;;18.70;13.95;;;;;;;18.59;64.37;100399.41;10313806;28;20140;-65
2023/05/09 05:24:53;;;;;;;19.25;15.35;;;;;;;18.59;64.31;100402.97;10300902;28;20458;-62
2023/05/09 05:29:55;;;;;;;18.88;14.27;;;;;;;18.64;64.23;100404.97;10303606;28;20083;-62
2023/05/09 05:34:56;;;;;;;20.52;14.88;;;;;;;18.75;63.84;100398.78;10304758;28;20057;-63
2023/05/09 05:39:58;;;;;;;20.55;15.45;;;;;;;18.78;63.98;100402.97;10299087;28;20045;-63
2023/05/09 05:45:08;;;;;;;20.55;14.65;;;;;;;18.75;63.96;100393.34;10303589;28;20536;-62
2023/05/09 05:50:10;;;;;;;18.20;14.10;;;;;;;18.78;63.77;100387.44;10301187;28;20084;-62
2023/05/09 05:55:12;;;;;;;20.35;14.57;;;;;;;18.81;63.65;100391.63;10300390;28;20137;-62
2023/05/09 06:00:15;;;;;;;18.90;14.70;;;;;;;18.96;63.48;100394.78;10301687;28;20744;-63
2023/05/09 06:05:16;;;;;;;18.15;14.55;;;;;;;19.13;63.18;100391.41;10331456;28;20057;-64
2023/05/09 06:10:18;;;;;;;20.25;15.40;;;;;;;19.33;62.81;100382.94;10341926;28;20053;-63
2023/05/09 06:15:19;;;;;;;20.15;14.98;;;;;;;19.59;62.25;100381.69;10338970;28;20142;-63
2023/05/09 06:20:21;;;;;;;19.50;14.45;;;;;;;19.57;62.18;100384.66;10339829;28;20081;-64
2023/05/09 06:25:22;;;;;;;16.67;13.48;;;;;;;19.77;61.68;100375.34;10355140;28;20046;-64
2023/05/09 06:30:24;;;;;;;17.63;13.38;;;;;;;20.06;61.32;100370.00;10354733;28;20054;-64
2023/05/09 06:35:27;;;;;;;16.90;13.00;;;;;;;20.25;60.81;100363.31;10358499;28;20046;-64
2023/05/09 06:40:29;;;;;;;20.65;13.38;;;;;;;20.32;60.43;100353.13;10347113;28;20108;-63
2023/05/09 06:45:30;;;;;;;16.38;12.88;;;;;;;20.48;60.31;100356.13;10342280;28;20127;-64
2023/05/09 06:50:32;;;;;;;18.38;13.20;;;;;;;20.51;59.88;100347.47;10342423;28;20054;-64
2023/05/09 06:55:33;;;;;;;15.18;12.45;;;;;;;20.65;59.39;100340.69;10347349;28;20125;-63
2023/05/09 07:00:35;;;;;;;16.58;13.35;;;;;;;20.69;59.28;100336.41;10341998;28;20046;-63
2023/05/09 07:05:36;;;;;;;18.50;13.00;;;;;;;20.74;59.38;100341.16;10345918;28;20065;-62
2023/05/09 07:10:38;;;;;;;17.10;12.18;;;;;;;20.79;58.89;100328.41;10343701;28;20124;-64
2023/05/09 07:15:39;;;;;;;15.30;12.63;;;;;;;21.05;58.53;100317.09;10341586;28;20074;-63
2023/05/09 07:20:43;;;;;;;16.02;11.73;;;;;;;21.19;58.05;100316.56;10351225;28;20537;-64
2023/05/09 07:25:45;;;;;;;17.90;12.05;;;;;;;21.37;57.55;100301.81;10352813;28;20046;-64
2023/05/09 07:30:49;;;;;;;14.65;11.30;;;;;;;21.55;57.58;100297.19;10348479;28;20144;-63
2023/05/09 07:35:51;;;;;;;13.15;10.88;;;;;;;21.89;56.18;100287.00;10346242;28;20054;-64
2023/05/09 07:40:53;;;;;;;15.25;12.40;;;;;;;22.07;55.86;100285.06;10350947;28;20054;-65
2023/05/09 07:45:54;;;;;;;14.10;11.30;;;;;;;22.32;55.05;100290.06;10349782;28;20080;-65
2023/05/09 07:50:57;;;;;;;14.25;11.98;;;;;;;22.50;54.46;100277.94;10342439;28;20114;-65
2023/05/09 07:55:58;;;;;;;16.80;11.82;;;;;;;22.49;54.53;100277.13;10360208;28;20050;-63
2023/05/09 08:01:00;;;;;;;15.20;11.07;;;;;;;22.48;54.21;100266.41;10343833;28;20168;-65
2023/05/09 08:06:01;;;;;;;13.50;10.70;;;;;;;22.49;54.48;100259.84;10345529;28;20053;-65
2023/05/09 08:11:04;;;;;;;16.27;11.30;;;;;;;22.55;53.73;100267.03;10346412;28;20097;-65
2023/05/09 08:16:05;;;;;;;17.27;10.48;;;;;;;22.60;53.12;100253.41;10342672;28;20187;-65
2023/05/09 08:21:07;;;;;;;12.23;10.18;;;;;;;22.62;53.33;100250.41;10346058;28;20072;-66
2023/05/09 08:26:08;;;;;;;12.82;10.07;;;;;;;22.64;53.12;100243.56;10347389;28;20046;-64
2023/05/09 08:31:10;;;;;;;14.52;10.43;;;;;;;22.63;53.23;100235.59;10344005;28;20077;-65
2023/05/09 08:36:11;;;;;;;17.90;11.07;;;;;;;22.57;53.45;100237.47;10346214;28;20077;-65
2023/05/09 08:41:13;;;;;;;13.38;10.38;;;;;;;22.43;53.42;100233.47;10344481;28;20539;-64
2023/05/09 08:46:15;;;;;;;12.48;10.45;;;;;;;22.31;53.79;100223.50;10342953;28;20535;-65
2023/05/09 08:51:17;;;;;;;14.25;11.77;;;;;;;22.17;53.68;100217.56;10346112;28;20052;-64
2023/05/09 08:56:20;;;;;;;15.02;11.32;;;;;;;21.98;54.40;100214.34;10350491;28;20124;-64
2023/05/09 09:01:22;;;;;;;12.10;10.30;;;;;;;21.91;54.66;100210.94;10342980;28;20058;-65
2023/05/09 09:06:24;;;;;;;11.90;10.38;;;;;;;21.82;54.86;100207.03;10348459;28;20084;-65
2023/05/09 09:11:30;;;;;;;14.18;10.82;;;;;;;21.77;54.95;100202.28;10347706;28;20049;-63
2023/05/09 09:16:32;;;;;;;16.05;10.57;;;;;;;21.76;55.43;100192.44;10342198;28;20049;-64
2023/05/09 09:21:34;;;;;;;14.52;10.93;;;;;;;21.80;55.13;100200.97;10347575;28;20056;-63
2023/05/09 09:26:45;;;;;;;16.85;12.85;;;;;;;22.06;54.69;100182.94;10345025;28;20073;-63
2023/05/09 09:31:51;;;;;;;15.98;11.50;;;;;;;22.27;54.11;100184.00;10336936;28;20349;-63
2023/05/09 09:36:52;;;;;;;15.03;10.10;;;;;;;22.41;53.81;100169.91;10343119;28;20061;-64
2023/05/09 09:41:54;;;;;;;15.68;10.52;;;;;;;22.48;54.09;100173.28;10344592;28;20520;-63
2023/05/09 09:46:55;;;;;;;13.38;10.65;;;;;;;22.31;54.33;100165.16;10340969;28;20591;-64
2023/05/09 09:51:57;;;;;;;11.75;9.68;;;;;;;22.33;54.29;100166.56;10347296;28;20077;-63
2023/05/09 09:56:58;;;;;;;14.15;11.10;;;;;;;22.23;54.15;100168.34;10339238;28;20053;-64
2023/05/09 10:02:06;;;;;;;12.40;10.55;;;;;;;22.21;54.11;100152.16;10334019;28;20105;-63
2023/05/09 10:07:09;;;;;;;12.90;10.25;;;;;;;22.15;54.47;100139.50;10301239;28;20506;-63
2023/05/09 10:12:18;;;;;;;11.93;9.80;;;;;;;22.09;54.70;100137.78;10301827;28;20490;-63
2023/05/09 10:17:21;;;;;;;14.13;10.10;;;;;;;22.07;54.54;100129.84;10301827;28;20560;-63
2023/05/09 10:22:23;;;;;;;17.42;10.30;;;;;;;22.05;54.58;100121.06;10300571;28;20054;-64
2023/05/09 10:27:27;;;;;;;12.38;9.93;;;;;;;22.24;54.63;100105.13;10302136;28;20058;-62
2023/05/09 10:32:53;;;;;;;25.52;10.75;;;;;;;22.43;54.23;100104.75;10302099;28;20056;-65
2023/05/09 10:37:56;;;;;;;12.50;9.13;;;;;;;22.50;54.30;100086.19;10302784;28;20061;-64
2023/05/09 10:42:57;;;;;;;13.80;8.68;;;;;;;22.68;54.18;100084.94;10303565;28;20441;-63
2023/05/09 10:48:01;;;;;;;13.70;8.90;;;;;;;22.78;53.58;100077.59;10297996;28;20501;-65
2023/05/09 10:53:17;;;;;;;10.10;9.02;;;;;;;22.75;53.94;100067.19;10305935;28;20118;-62
2023/05/09 10:58:30;;;;;;;11.73;7.70;;;;;;;22.94;53.85;100056.59;10310479;28;20042;-64
2023/05/09 11:03:52;;;;;;;12.10;8.65;;;;;;;23.19;53.36;100046.09;10320221;28;20058;-62
2023/05/09 11:08:53;;;;;;;10.57;9.43;;;;;;;23.41;52.46;100045.91;10353350;28;20659;-64
2023/05/09 11:13:56;;;;;;;9.82;8.82;;;;;;;23.49;52.18;100037.13;10351835;28;20053;-62
2023/05/09 11:18:58;;;;;;;10.10;8.63;;;;;;;23.72;51.83;100027.59;10349720;28;20496;-63
2023/05/09 11:24:15;;;;;;;9.02;8.13;;;;;;;23.90;51.07;100016.13;10351189;28;20057;-62
2023/05/09 11:29:16;;;;;;;13.02;8.52;;;;;;;23.86;51.19;100009.53;10342421;28;20559;-61
2023/05/09 11:34:18;;;;;;;11.73;8.38;;;;;;;23.43;52.28;100013.53;10351484;28;20175;-71
2023/05/09 11:39:24;;;;;;;10.15;9.13;;;;;;;22.83;54.76;100011.06;10350695;28;20396;-70
2023/05/09 11:44:26;;;;;;;11.60;8.38;;;;;;;23.04;54.03;99997.47;10335999;28;20442;-71
2023/05/09 11:49:28;;;;;;;10.77;8.70;;;;;;;23.24;53.69;100002.22;10348052;28;20050;-71
2023/05/09 11:54:30;;;;;;;14.43;9.68;;;;;;;23.46;53.43;99991.88;10334541;28;20046;-71
2023/05/09 11:59:35;;;;;;;13.50;9.07;;;;;;;23.54;52.87;99976.81;10349709;28;20510;-70
2023/05/09 12:04:37;;;;;;;10.80;9.13;;;;;;;23.71;52.56;99974.59;10342151;28;20046;-72
2023/05/09 12:09:39;;;;;;;12.20;9.35;;;;;;;23.83;52.15;99970.81;10351679;28;20552;-72
2023/05/09 12:14:40;;;;;;;16.27;9.35;;;;;;;23.69;52.23;99954.84;10349381;28;20054;-72
2023/05/09 12:19:43;;;;;;;9.73;8.73;;;;;;;23.51;52.01;99947.97;10352551;28;20058;-72
2023/05/09 12:24:44;;;;;;;8.98;7.57;;;;;;;23.47;52.79;99946.88;10354844;28;20109;-72
2023/05/09 12:29:47;;;;;;;12.15;8.13;;;;;;;23.48;52.77;99943.03;10352829;28;20471;-71
2023/05/09 12:34:48;;;;;;;11.50;8.75;;;;;;;23.54;52.42;99930.16;10372805;28;20106;-72
2023/05/09 12:40:14;;;;;;;9.32;7.80;;;;;;;23.64;52.38;99921.94;10368448;28;20050;-72
2023/05/09 12:45:16;;;;;;;12.23;7.75;;;;;;;23.74;53.16;99915.63;10351675;28;20149;-72
2023/05/09 12:50:18;;;;;;;11.43;8.70;;;;;;;23.06;54.06;99910.28;10351570;28;20053;-74
2023/05/09 12:55:20;;;;;;;13.43;9.95;;;;;;;22.49;56.40;99906.47;10366836;28;20061;-71
2023/05/09 13:00:22;;;;;;;12.52;10.98;;;;;;;21.93;58.30;99885.81;10346187;28;20116;-72
2023/05/09 13:05:23;;;;;;;13.52;11.23;;;;;;;21.64;58.75;99881.75;10350915;28;20132;-72
2023/05/09 13:10:27;;;;;;;15.07;11.77;;;;;;;21.25;60.88;99868.25;10351608;28;20069;-71
2023/05/09 13:15:29;;;;;;;20.08;14.15;;;;;;;20.32;63.89;99866.31;10352967;28;20046;-70
2023/05/09 13:20:31;;;;;;;16.95;12.88;;;;;;;19.93;66.66;99855.44;10353303;28;20049;-67
2023/05/09 13:25:33;;;;;;;14.00;11.48;;;;;;;20.28;65.44;99841.47;10346798;28;20092;-67
2023/05/09 13:30:34;;;;;;;16.17;10.90;;;;;;;20.25;65.51;99835.69;10346115;28;20133;-66
2023/05/09 13:35:36;;;;;;;11.82;10.20;;;;;;;20.57;65.02;99820.22;10343059;28;20120;-71
2023/05/09 13:40:37;;;;;;;12.98;10.25;;;;;;;20.65;64.65;99815.44;10343234;28;20561;-71
2023/05/09 13:45:39;;;;;;;11.25;8.73;;;;;;;20.89;64.09;99805.88;10347013;28;20120;-72
2023/05/09 13:50:40;;;;;;;12.98;10.48;;;;;;;20.93;63.81;99811.63;10363751;28;20388;-69
2023/05/09 13:55:42;;;;;;;13.43;9.73;;;;;;;21.17;63.21;99793.84;10341842;28;20387;-70
2023/05/09 14:00:44;;;;;;;10.10;7.60;;;;;;;21.13;62.94;99792.72;10338446;28;20449;-70
2023/05/09 14:05:47;;;;;;;11.52;7.70;;;;;;;20.97;63.62;99788.16;10320368;28;20061;-71
2023/05/09 14:10:49;;;;;;;11.63;8.38;;;;;;;20.86;63.82;99772.78;10344715;28;20061;-73
2023/05/09 14:15:50;;;;;;;9.93;7.65;;;;;;;20.78;63.66;99760.41;10341555;28;20054;-72
2023/05/09 14:20:52;;;;;;;10.63;7.68;;;;;;;20.73;63.78;99755.69;10353806;28;20052;-72
2023/05/09 14:25:55;;;;;;;10.40;8.27;;;;;;;20.76;63.31;99744.28;10348415;28;20046;-70
2023/05/09 14:30:56;;;;;;;9.82;6.97;;;;;;;20.93;62.97;99735.97;10345840;28;20061;-73
2023/05/09 14:36:00;;;;;;;9.70;7.18;;;;;;;21.13;62.61;99727.13;10363896;28;20069;-74
2023/05/09 14:41:02;;;;;;;11.60;7.80;;;;;;;21.32;62.32;99734.91;10361109;28;20081;-73
2023/05/09 14:46:05;;;;;;;11.68;8.23;;;;;;;21.37;62.32;99721.28;10352105;28;20144;-72
2023/05/09 14:51:07;;;;;;;12.57;8.43;;;;;;;21.23;63.10;99707.25;10358610;28;20080;-72
2023/05/09 14:56:10;;;;;;;11.25;9.18;;;;;;;20.75;64.93;99689.88;10376308;28;20053;-70
2023/05/09 15:01:12;;;;;;;11.23;8.73;;;;;;;20.62;65.56;99699.34;10368909;28;20050;-73
2023/05/09 15:06:15;;;;;;;11.52;9.70;;;;;;;20.69;66.02;99688.19;10360245;28;20108;-71
2023/05/09 15:11:17;;;;;;;13.55;9.32;;;;;;;20.79;65.53;99680.09;10361911;28;20050;-73
2023/05/09 15:16:19;;;;;;;10.80;8.68;;;;;;;20.86;65.79;99675.25;10351169;28;20057;-65
2023/05/09 15:21:20;;;;;;;13.38;9.07;;;;;;;20.67;66.63;99674.78;10344591;28;20114;-67
2023/05/09 15:26:23;;;;;;;13.85;9.82;;;;;;;20.61;67.00;99667.66;10362881;28;20058;-76
2023/05/09 15:31:24;;;;;;;11.63;8.43;;;;;;;20.52;67.04;99663.72;10351614;28;20061;-72
2023/05/09 15:36:28;;;;;;;11.77;8.75;;;;;;;20.45;66.81;99657.63;10329173;28;20739;-74
2023/05/09 15:41:30;;;;;;;12.68;9.02;;;;;;;20.16;67.41;99660.59;10400724;28;20042;-71
2023/05/09 15:46:32;;;;;;;13.88;10.18;;;;;;;19.74;68.68;99672.13;10393194;28;20097;-70
2023/05/09 15:51:42;;;;;;;18.20;12.55;;;;;;;19.29;70.36;99678.56;10409526;23;20040;-89
2023/05/09 15:56:43;;;;;;;15.90;11.95;;;;;;;19.25;70.51;99686.41;10404811;28;20048;-88
2023/05/09 16:01:46;;;;;;;21.38;11.25;;;;;;;18.99;71.77;99685.19;10420565;28;20519;-89
2023/05/09 16:06:50;;;;;;;20.42;13.50;;;;;;;19.01;71.85;99674.88;10402279;28;20038;-87
2023/05/09 16:11:52;;;;;;;19.00;12.88;;;;;;;18.87;72.49;99649.06;10437689;28;20117;-89
2023/05/09 16:16:59;;;;;;;20.98;14.45;;;;;;;18.62;73.62;99633.91;10455074;28;20123;-89
2023/05/09 16:22:06;;;;;;;24.48;14.88;;;;;;;18.63;73.97;99619.22;10427555;23;20080;-69
2023/05/09 16:27:08;;;;;;;29.20;15.23;;;;;;;18.65;74.30;99608.91;10459418;28;20068;-68
2023/05/09 16:32:09;;;;;;;27.38;15.75;;;;;;;18.72;74.25;99589.69;10450400;28;20577;-69
2023/05/09 16:37:11;;;;;;;21.88;14.05;;;;;;;18.68;74.84;99586.66;10462749;28;20814;-71
2023/05/09 16:42:13;;;;;;;19.60;14.00;;;;;;;18.53;75.33;99580.97;10455976;28;20045;-72
2023/05/09 16:47:16;;;;;;;20.80;12.65;;;;;;;18.40;75.79;99565.75;10453660;28;20048;-72
2023/05/09 16:52:18;;;;;;;17.65;11.65;;;;;;;18.36;75.72;99565.44;10476480;28;20057;-74
2023/05/09 16:57:21;;;;;;;19.80;13.85;;;;;;;18.39;75.61;99562.22;10502713;28;20049;-76
2023/05/09 17:02:22;;;;;;;20.02;13.40;;;;;;;18.56;75.14;99564.13;10494936;28;20056;-72
2023/05/09 17:07:26;;;;;;;18.45;14.20;;;;;;;18.65;74.88;99551.75;10510870;28;20045;-72
2023/05/09 17:12:33;;;;;;;19.52;12.80;;;;;;;18.58;75.32;99564.69;10491571;28;20033;-74
2023/05/09 17:17:36;;;;;;;17.27;12.60;;;;;;;18.56;75.25;99580.44;10624615;22;20088;-89
2023/05/09 17:22:38;;;;;;;23.08;13.90;;;;;;;18.57;75.70;99584.84;10429042;28;20057;-88
2023/05/09 17:27:42;;;;;;;29.23;15.93;;;;;;;18.51;75.87;99581.19;10427945;28;20053;-89
2023/05/09 17:33:10;;;;;;;29.10;17.35;;;;;;;18.70;75.61;99589.09;10406553;28;20057;-89
2023/05/09 17:38:30;;;;;;;30.23;17.20;;;;;;;18.76;75.46;99579.94;10430054;28;20038;-90
2023/05/09 17:43:35;;;;;;;25.42;14.05;;;;;;;18.72;75.62;99571.47;10423151;28;20045;-90
2023/05/09 17:48:40;;;;;;;28.98;15.57;;;;;;;18.57;75.95;99552.16;10414999;28;20076;-91
2023/05/09 17:53:46;;;;;;;21.45;13.90;;;;;;;18.45;76.45;99560.41;10402034;23;20053;-72
2023/05/09 17:58:51;;;;;;;22.80;14.65;;;;;;;18.37;76.70;99561.66;10419326;28;20601;-71
2023/05/09 18:03:53;;;;;;;26.10;15.55;;;;;;;18.31;76.86;99557.19;10420224;28;20064;-72
2023/05/09 18:08:54;;;;;;;29.13;16.25;;;;;;;18.52;76.45;99549.34;10389317;28;20069;-72
2023/05/09 18:13:56;;;;;;;26.70;16.48;;;;;;;18.61;76.21;99543.25;10421448;28;20380;-72
2023/05/09 18:18:58;;;;;;;29.40;17.75;;;;;;;18.67;76.63;99543.34;10420410;28;20073;-73
2023/05/09 18:24:00;;;;;;;25.60;14.77;;;;;;;18.53;76.48;99572.78;10406221;28;20073;-73
2023/05/09 18:29:01;;;;;;;24.83;15.65;;;;;;;18.19;77.45;99578.22;10395362;28;20044;-70
2023/05/09 18:34:04;;;;;;;24.90;16.17;;;;;;;18.08;77.95;99592.69;10425414;28;20376;-71
2023/05/09 18:39:07;;;;;;;31.80;16.48;;;;;;;17.93;78.42;99598.66;10401437;28;20045;-68
2023/05/09 18:44:09;;;;;;;33.30;16.70;;;;;;;17.82;78.51;99593.00;10398523;28;20073;-71
2023/05/09 18:49:10;;;;;;;22.83;11.40;;;;;;;17.65;78.99;99605.69;10404448;28;20072;-70
2023/05/09 18:54:12;;;;;;;24.35;12.23;;;;;;;17.43;79.11;99600.91;10417580;28;20115;-70
2023/05/09 18:59:15;;;;;;;18.45;11.52;;;;;;;17.26;79.52;99605.44;10400484;28;20646;-68
2023/05/09 19:04:18;;;;;;;23.02;9.27;;;;;;;17.06;79.85;99603.09;10402298;28;20080;-67
2023/05/09 19:09:19;;;;;;;14.85;8.48;;;;;;;17.05;79.58;99602.25;10404555;28;20050;-67
2023/05/09 19:14:21;;;;;;;11.93;6.38;;;;;;;17.05;79.37;99599.56;10426549;28;20555;-63
2023/05/09 19:19:23;;;;;;;11.05;6.45;;;;;;;17.13;78.92;99592.94;10431568;28;20055;-65
2023/05/09 19:24:24;;;;;;;10.50;5.93;;;;;;;17.20;78.85;99587.38;10425548;28;20069;-63
2023/05/09 19:29:25;;;;;;;16.27;7.20;;;;;;;17.22;78.35;99582.56;10424180;28;20044;-64
2023/05/09 19:34:30;;;;;;;13.95;7.15;;;;;;;17.13;78.90;99595.66;10431507;28;20057;-64
2023/05/09 19:39:31;;;;;;;12.82;6.85;;;;;;;17.17;78.63;99590.56;10410277;28;20091;-64
2023/05/09 19:44:32;;;;;;;15.43;8.45;;;;;;;17.30;78.56;99593.03;10408055;28;20045;-64
2023/05/09 19:49:34;;;;;;;16.75;8.60;;;;;;;17.24;78.50;99586.66;10424588;28;20065;-65
2023/05/09 19:54:35;;;;;;;16.50;8.98;;;;;;;17.34;78.23;99593.41;10424165;28;20088;-64
2023/05/09 19:59:37;;;;;;;22.50;10.07;;;;;;;17.23;78.52;99603.19;10405526;28;20073;-64
2023/05/09 20:04:38;;;;;;;27.63;10.05;;;;;;;17.02;79.47;99608.19;10426623;28;20093;-64
2023/05/09 20:09:40;;;;;;;18.23;10.02;;;;;;;16.91;79.79;99603.56;10424658;28;20455;-64
2023/05/09 20:14:41;;;;;;;24.58;9.98;;;;;;;16.98;79.75;99592.59;10425039;28;20119;-64
2023/05/09 20:19:42;;;;;;;29.08;12.75;;;;;;;17.07;79.48;99588.47;10413955;28;20073;-64
2023/05/09 20:24:44;;;;;;;29.00;10.95;;;;;;;17.09;79.22;99583.63;10409216;28;20056;-65
2023/05/09 20:29:45;;;;;;;20.20;7.65;;;;;;;16.97;79.48;99589.06;10419027;28;20420;-59
2023/05/09 20:34:47;;;;;;;23.95;8.50;;;;;;;17.07;79.46;99574.88;10425426;28;21599;-61
2023/05/09 20:39:48;;;;;;;18.60;8.52;;;;;;;17.13;79.50;99582.06;10422965;28;20316;-59
2023/05/09 20:44:50;;;;;;;28.92;10.05;;;;;;;17.23;79.05;99574.13;10420271;28;20080;-59
2023/05/09 20:49:52;;;;;;;25.63;10.95;;;;;;;17.33;78.76;99573.53;10424409;28;20052;-61
2023/05/09 20:54:53;;;;;;;30.85;10.98;;;;;;;17.31;78.87;99569.41;10426022;28;20057;-60
2023/05/09 20:59:55;;;;;;;30.27;11.55;;;;;;;17.31;78.99;99563.97;10422571;28;20072;-60
2023/05/09 21:04:56;;;;;;;37.80;12.80;;;;;;;17.34;78.81;99563.50;10422708;28;20484;-60
2023/05/09 21:09:57;;;;;;;35.35;13.38;;;;;;;17.34;79.00;99555.38;10425453;28;20132;-60
2023/05/09 21:14:59;;;;;;;34.90;13.13;;;;;;;17.32;79.27;99552.88;10421283;28;20103;-61
2023/05/09 21:20:01;;;;;;;29.20;12.05;;;;;;;17.36;78.95;99550.50;10417505;28;20087;-61
2023/05/09 21:25:02;;;;;;;25.73;11.48;;;;;;;17.34;79.21;99549.94;10417903;28;20049;-61
2023/05/09 21:30:05;;;;;;;26.38;11.23;;;;;;;17.27;79.54;99543.78;10418752;28;20099;-60
2023/05/09 21:35:09;;;;;;;20.00;9.07;;;;;;;17.15;79.69;99541.91;10422252;28;20046;-61
2023/05/09 21:40:11;;;;;;;15.60;6.82;;;;;;;17.05;79.77;99539.00;10419285;28;20053;-61
2023/05/09 21:45:13;;;;;;;10.50;6.03;;;;;;;17.01;79.62;99535.09;10419707;28;20052;-60
2023/05/09 21:50:14;;;;;;;13.95;7.28;;;;;;;16.99;79.85;99529.09;10413665;28;20456;-60
2023/05/09 21:55:16;;;;;;;17.08;6.95;;;;;;;16.94;79.77;99526.25;10420052;28;20063;-59
2023/05/09 22:00:18;;;;;;;14.23;6.40;;;;;;;16.91;79.92;99524.84;10415915;28;20313;-60
2023/05/09 22:05:20;;;;;;;16.58;7.15;;;;;;;16.90;80.03;99531.31;10423017;28;20355;-62
2023/05/09 22:10:21;;;;;;;16.42;7.07;;;;;;;16.90;79.94;99530.50;10421621;28;20099;-62
2023/05/09 22:15:23;;;;;;;17.70;7.97;;;;;;;16.87;79.69;99529.09;10419413;28;20061;-61
2023/05/09 22:20:24;;;;;;;17.83;7.60;;;;;;;16.82;79.95;99527.13;10419560;28;20124;-61
2023/05/09 22:25:26;;;;;;;14.27;7.32;;;;;;;16.82;80.19;99528.97;10419704;28;20049;-61
2023/05/09 22:30:27;;;;;;;18.17;8.07;;;;;;;16.84;79.92;99521.41;10419528;28;20119;-61
2023/05/09 22:35:29;;;;;;;14.35;6.93;;;;;;;16.86;79.84;99524.72;10418759;28;20080;-61
2023/05/09 22:40:30;;;;;;;15.23;7.35;;;;;;;16.84;80.12;99516.84;10418374;28;20049;-61
2023/05/09 22:45:31;;;;;;;20.08;8.38;;;;;;;16.79;80.24;99516.69;10418186;28;20172;-61
2023/05/09 22:50:33;;;;;;;19.42;7.82;;;;;;;16.81;79.91;99521.88;10424010;28;20194;-62